Time;durP1;ratioP1;P1;durP2;ratioP2;P2;SDS_P1;SDS_P2;PMS_P1;PMS_P2;Temp;Humidity;BMP_temperature;BMP_pressure;BME280_temperature;BME280_humidity;BME280_pressure;Samples;Min_cycle;Max_cycle;Signal;HPM_P1;HPM_P2
2021/11/11 00:02:00;;;;;;;21.10;12.98;;;;;;;-1.06;69.91;103113.38;1861513;77;20947;-80
2021/11/11 00:04:27;;;;;;;22.30;13.62;;;;;;;-1.08;69.77;103103.45;1861877;77;21348;-78
2021/11/11 00:06:59;;;;;;;23.83;14.45;;;;;;;-1.10;69.68;103098.25;1861543;77;21180;-79
2021/11/11 00:09:26;;;;;;;19.12;13.15;;;;;;;-1.10;69.64;103102.53;1861272;77;20867;-80
2021/11/11 00:11:54;;;;;;;20.20;13.55;;;;;;;-1.10;69.57;103101.25;1861435;77;21044;-82
2021/11/11 00:14:23;;;;;;;22.60;13.75;;;;;;;-1.10;69.50;103098.25;1861368;77;20958;-80
2021/11/11 00:16:50;;;;;;;24.30;13.13;;;;;;;-1.09;69.54;103100.02;1861490;77;20993;-82
2021/11/11 00:19:17;;;;;;;34.38;17.55;;;;;;;-1.08;69.49;103094.44;1861466;77;21132;-79
2021/11/11 00:21:46;;;;;;;25.65;15.48;;;;;;;-1.08;69.39;103091.86;1861353;77;20820;-81
2021/11/11 00:24:14;;;;;;;21.33;14.28;;;;;;;-1.08;69.38;103097.87;1861292;77;21466;-80
2021/11/11 00:26:41;;;;;;;21.65;14.90;;;;;;;-1.10;69.42;103098.25;1861485;77;20888;-80
2021/11/11 00:29:09;;;;;;;21.87;12.78;;;;;;;-1.10;69.24;103099.53;1861501;77;20868;-81
2021/11/11 00:31:37;;;;;;;17.98;12.30;;;;;;;-1.14;69.06;103095.13;1861472;77;21077;-81
2021/11/11 00:34:04;;;;;;;16.23;12.10;;;;;;;-1.16;69.02;103086.48;1861382;77;21455;-81
2021/11/11 00:36:31;;;;;;;15.85;11.80;;;;;;;-1.16;69.02;103087.77;1861320;77;20919;-79
2021/11/11 00:38:58;;;;;;;16.70;11.75;;;;;;;-1.18;69.02;103079.12;1861788;77;21362;-80
2021/11/11 00:41:26;;;;;;;19.50;11.28;;;;;;;-1.17;69.01;103077.02;1861548;77;20864;-81
2021/11/11 00:43:52;;;;;;;16.70;10.43;;;;;;;-1.15;69.05;103069.36;1861941;77;21824;-78
2021/11/11 00:46:19;;;;;;;19.95;11.40;;;;;;;-1.13;69.05;103065.12;1861635;77;20895;-79
2021/11/11 00:48:46;;;;;;;17.57;10.93;;;;;;;-1.11;68.97;103056.61;1861376;76;20903;-79
2021/11/11 00:51:13;;;;;;;19.02;11.00;;;;;;;-1.10;68.94;103056.19;1862010;77;20892;-79
2021/11/11 00:53:40;;;;;;;19.00;11.70;;;;;;;-1.11;68.88;103047.98;1861559;77;20954;-79
2021/11/11 00:56:07;;;;;;;16.90;10.18;;;;;;;-1.09;68.97;103042.08;1861455;77;21082;-79
2021/11/11 00:58:36;;;;;;;15.40;9.85;;;;;;;-1.08;68.95;103037.37;1861197;77;20864;-80
2021/11/11 01:01:03;;;;;;;19.30;11.85;;;;;;;-1.08;68.94;103033.93;1860742;77;20923;-80
2021/11/11 01:03:35;;;;;;;15.88;11.15;;;;;;;-1.07;69.14;103029.22;1861110;77;21010;-81
2021/11/11 01:06:01;;;;;;;19.87;11.97;;;;;;;-1.06;69.12;103029.70;1860886;77;20919;-80
2021/11/11 01:08:29;;;;;;;19.92;13.53;;;;;;;-1.06;69.16;103033.56;1860778;77;21961;-80
2021/11/11 01:10:56;;;;;;;25.27;14.00;;;;;;;-1.03;69.19;103029.77;1860695;77;20863;-79
2021/11/11 01:13:22;;;;;;;24.95;15.72;;;;;;;-1.02;69.02;103034.49;1861005;77;20962;-79
2021/11/11 01:15:49;;;;;;;18.27;12.05;;;;;;;-1.05;68.99;103022.41;1860751;77;20927;-79
2021/11/11 01:18:18;;;;;;;29.48;16.12;;;;;;;-1.08;68.95;103033.93;1860818;77;21412;-80
2021/11/11 01:20:45;;;;;;;25.37;15.88;;;;;;;-1.12;69.03;103034.67;1860932;77;21122;-80
2021/11/11 01:23:12;;;;;;;23.05;13.40;;;;;;;-1.18;69.14;103035.78;1861082;77;20959;-81
2021/11/11 01:25:39;;;;;;;18.15;11.73;;;;;;;-1.25;69.13;103042.04;1860891;77;20887;-81
2021/11/11 01:28:08;;;;;;;15.83;11.45;;;;;;;-1.29;69.42;103048.34;1860730;77;20922;-81
2021/11/11 01:30:38;;;;;;;16.93;10.63;;;;;;;-1.31;69.67;103053.47;1860970;77;20883;-80
2021/11/11 01:33:08;;;;;;;18.55;10.95;;;;;;;-1.29;69.79;103053.50;1860536;77;21076;-82
2021/11/11 01:35:36;;;;;;;19.00;10.65;;;;;;;-1.29;69.82;103056.07;1860940;77;20915;-81
2021/11/11 01:38:04;;;;;;;19.15;11.08;;;;;;;-1.29;69.85;103042.81;1861041;77;20950;-81
2021/11/11 01:40:32;;;;;;;18.60;11.05;;;;;;;-1.27;69.84;103033.44;1862063;77;20978;-80
2021/11/11 01:43:03;;;;;;;13.80;9.68;;;;;;;-1.27;69.83;103032.14;1830152;77;20911;-81
2021/11/11 01:45:38;;;;;;;16.35;10.70;;;;;;;-1.27;69.81;103031.25;1862457;77;21121;-80
2021/11/11 01:48:09;;;;;;;17.42;10.55;;;;;;;-1.27;69.83;103028.67;1860799;77;20876;-81
2021/11/11 01:50:37;;;;;;;17.07;10.25;;;;;;;-1.27;69.76;103020.56;1847836;77;20880;-81
2021/11/11 01:53:05;;;;;;;11.30;8.13;;;;;;;-1.27;69.75;103018.38;1847391;77;21385;-81
2021/11/11 01:55:32;;;;;;;13.45;9.60;;;;;;;-1.28;69.76;103013.65;1847436;77;20959;-82
2021/11/11 01:58:00;;;;;;;14.83;9.20;;;;;;;-1.29;69.68;103006.77;1847826;77;21130;-81
2021/11/11 02:00:35;;;;;;;15.95;10.13;;;;;;;-1.26;69.78;103020.14;1847380;77;20861;-80
2021/11/11 02:03:04;;;;;;;13.55;8.60;;;;;;;-1.26;69.70;103017.14;1847922;77;21405;-80
2021/11/11 02:05:50;;;;;;;17.42;10.32;;;;;;;-1.26;69.71;103030.02;1847324;77;20868;-80
2021/11/11 02:08:19;;;;;;;15.45;10.50;;;;;;;-1.28;69.69;103031.67;1846641;77;20864;-77
2021/11/11 02:10:48;;;;;;;21.42;11.95;;;;;;;-1.27;69.81;103030.86;1847172;77;20864;-77
2021/11/11 02:13:15;;;;;;;20.72;12.28;;;;;;;-1.27;69.88;103026.09;1847387;77;21376;-79
2021/11/11 02:15:42;;;;;;;15.85;11.05;;;;;;;-1.28;69.81;103023.95;1847295;77;20959;-79
2021/11/11 02:18:09;;;;;;;18.67;11.35;;;;;;;-1.29;69.88;103022.61;1847631;77;20880;-80
2021/11/11 02:20:41;;;;;;;15.25;11.00;;;;;;;-1.32;69.88;103025.97;1847346;77;21357;-79
2021/11/11 02:23:15;;;;;;;16.67;10.75;;;;;;;-1.36;69.77;103022.85;1831821;77;21193;-78
2021/11/11 02:25:48;;;;;;;15.78;10.68;;;;;;;-1.40;69.89;103022.72;1838668;77;20860;-80
2021/11/11 02:28:18;;;;;;;15.93;9.60;;;;;;;-1.42;69.95;103024.38;1847597;77;20896;-81
2021/11/11 02:30:48;;;;;;;16.20;10.78;;;;;;;-1.43;69.98;103021.36;1847257;77;20828;-79
2021/11/11 02:33:23;;;;;;;17.60;10.90;;;;;;;-1.42;70.09;103019.23;1847660;77;20911;-80
2021/11/11 02:35:50;;;;;;;;;;;;;;;-1.40;70.06;103008.57;1850571;77;21556;-78
2021/11/11 02:38:18;;;;;;;19.92;10.93;;;;;;;-1.39;70.11;103005.19;1819808;77;20084;-80
2021/11/11 02:40:44;;;;;;;17.85;12.05;;;;;;;-1.40;70.08;103002.14;1847192;77;20943;-78
2021/11/11 02:43:13;;;;;;;15.53;11.28;;;;;;;-1.41;70.10;103000.41;1847807;77;20940;-79
2021/11/11 02:45:44;;;;;;;19.77;11.95;;;;;;;-1.46;70.15;103002.43;1848003;77;20903;-78
2021/11/11 02:48:13;;;;;;;20.57;12.00;;;;;;;-1.47;70.21;103003.27;1847966;77;21787;-79
2021/11/11 02:50:44;;;;;;;18.48;12.23;;;;;;;-1.51;70.05;103001.44;1847163;77;21318;-79
2021/11/11 02:53:13;;;;;;;26.70;14.20;;;;;;;-1.54;70.15;103007.77;1847230;77;20951;-79
2021/11/11 02:55:41;;;;;;;18.73;12.53;;;;;;;-1.55;70.19;103006.45;1847213;77;20951;-79
2021/11/11 02:58:09;;;;;;;20.72;12.78;;;;;;;-1.55;70.23;103010.31;1847256;77;21372;-78
2021/11/11 03:00:47;;;;;;;24.85;12.65;;;;;;;-1.56;70.23;103013.70;1819316;77;21159;-78
2021/11/11 03:03:16;;;;;;;20.57;12.33;;;;;;;-1.58;70.26;103007.24;1847432;77;20903;-78
2021/11/11 03:05:43;;;;;;;18.02;12.47;;;;;;;-1.56;70.36;103009.84;1847334;77;20919;-78
2021/11/11 03:08:12;;;;;;;21.40;12.10;;;;;;;-1.56;70.32;103015.84;1847029;77;21471;-80
2021/11/11 03:10:42;;;;;;;18.75;11.80;;;;;;;-1.54;70.37;103014.62;1846420;77;20915;-81
2021/11/11 03:13:09;;;;;;;20.70;10.85;;;;;;;-1.54;70.33;103003.91;1847532;77;21789;-82
2021/11/11 03:15:37;;;;;;;20.68;12.88;;;;;;;-1.53;70.33;102994.51;1847212;77;20837;-79
2021/11/11 03:18:06;;;;;;;36.30;19.73;;;;;;;-1.54;70.39;103003.04;1847338;77;21005;-81
2021/11/11 03:20:33;;;;;;;31.90;21.65;;;;;;;-1.53;70.44;102997.95;1847045;77;20944;-82
2021/11/11 03:23:01;;;;;;;22.82;12.82;;;;;;;-1.51;70.49;102991.14;1847615;77;20947;-80
2021/11/11 03:25:32;;;;;;;18.90;12.13;;;;;;;-1.48;70.51;102990.36;1847443;77;21208;-79
2021/11/11 03:27:59;;;;;;;19.60;12.70;;;;;;;-1.43;70.46;102986.63;1847532;77;20872;-80
2021/11/11 03:30:28;;;;;;;20.37;13.08;;;;;;;-1.41;70.46;102984.55;1847816;77;20916;-77
2021/11/11 03:32:57;;;;;;;19.02;10.88;;;;;;;-1.37;70.38;102986.37;1848353;77;20904;-79
2021/11/11 03:35:26;;;;;;;19.35;11.55;;;;;;;-1.34;70.28;102986.45;1847710;77;20876;-79
2021/11/11 03:37:54;;;;;;;18.77;11.73;;;;;;;-1.31;70.30;102986.98;1847541;77;21155;-80
2021/11/11 03:40:26;;;;;;;18.95;11.88;;;;;;;-1.30;70.14;102972.84;1847136;77;20872;-79
2021/11/11 03:42:53;;;;;;;20.48;12.00;;;;;;;-1.29;70.02;102972.42;1847901;77;20884;-82
2021/11/11 03:45:22;;;;;;;21.00;11.68;;;;;;;-1.29;69.94;102978.46;1847195;77;21359;-79
2021/11/11 03:47:50;;;;;;;21.35;11.57;;;;;;;-1.29;69.87;102976.28;1847164;77;20928;-79
2021/11/11 03:50:17;;;;;;;23.15;13.20;;;;;;;-1.30;69.82;102975.41;1856521;77;21130;-80
2021/11/11 03:52:45;;;;;;;20.23;11.50;;;;;;;-1.29;69.70;102974.98;1860958;77;20860;-81
2021/11/11 03:55:14;;;;;;;21.77;12.30;;;;;;;-1.30;69.72;102976.70;1860678;77;20919;-82
2021/11/11 03:57:41;;;;;;;21.60;11.63;;;;;;;-1.31;69.80;102972.39;1860794;77;20931;-82
2021/11/11 04:00:11;;;;;;;18.67;12.00;;;;;;;-1.27;69.77;102972.05;1860674;77;20881;-80
2021/11/11 04:02:41;;;;;;;19.07;11.12;;;;;;;-1.26;69.68;102965.66;1859376;77;21127;-82
2021/11/11 04:05:10;;;;;;;26.65;12.18;;;;;;;-1.24;69.64;102960.56;1860680;77;20864;-81
2021/11/11 04:07:38;;;;;;;21.23;12.80;;;;;;;-1.23;69.66;102971.72;1861140;77;21340;-81
2021/11/11 04:10:06;;;;;;;22.02;12.82;;;;;;;-1.21;69.57;102973.50;1860652;77;20923;-79
2021/11/11 04:12:35;;;;;;;25.75;13.22;;;;;;;-1.21;69.47;102970.93;1860754;77;20910;-81
2021/11/11 04:15:03;;;;;;;28.98;14.75;;;;;;;-1.20;69.37;102967.94;1860632;77;21099;-79
2021/11/11 04:17:32;;;;;;;24.67;13.78;;;;;;;-1.20;69.29;102970.12;1860604;77;20931;-82
2021/11/11 04:19:59;;;;;;;23.85;13.98;;;;;;;-1.21;69.15;102966.20;1860913;77;20926;-84
2021/11/11 04:22:26;;;;;;;28.32;14.85;;;;;;;-1.26;69.10;102956.66;1861048;77;20868;-80
2021/11/11 04:24:55;;;;;;;27.02;14.45;;;;;;;-1.27;69.11;102960.07;1860778;77;20891;-80
2021/11/11 04:27:29;;;;;;;24.55;13.28;;;;;;;-1.26;69.06;102967.38;1863011;77;21111;-80
2021/11/11 04:30:12;;;;;;;19.77;12.50;;;;;;;-1.29;68.98;102961.73;1859612;77;20962;-79
2021/11/11 04:32:29;;;;;;;25.23;13.25;;;;;;;-1.32;68.96;102962.91;1858609;77;20923;-78
2021/11/11 04:34:59;;;;;;;23.22;13.95;;;;;;;-1.33;69.02;102968.91;1860872;77;20852;-78
2021/11/11 04:37:29;;;;;;;24.15;13.90;;;;;;;-1.34;69.07;102962.00;1861041;77;20907;-77
2021/11/11 04:40:17;;;;;;;22.20;14.98;;;;;;;-1.33;69.07;102965.05;1860347;77;21412;-77
2021/11/11 05:01:40;;;;;;;35.43;17.42;;;;;;;-1.26;68.71;102981.11;1861057;77;20911;-78
2021/11/11 05:04:03;;;;;;;32.13;15.23;;;;;;;-1.27;68.79;102983.23;1859733;77;21403;-80
2021/11/11 05:06:31;;;;;;;26.77;14.60;;;;;;;-1.25;68.77;102990.98;1860714;77;21021;-79
2021/11/11 05:08:59;;;;;;;23.80;15.23;;;;;;;-1.25;68.74;102984.55;1860987;77;21332;-79
2021/11/11 05:11:26;;;;;;;23.15;13.32;;;;;;;-1.22;68.68;102997.91;1861108;77;20855;-78
2021/11/11 05:13:53;;;;;;;19.80;11.53;;;;;;;-1.20;68.65;102992.39;1860708;77;20927;-75
2021/11/11 05:16:21;;;;;;;16.77;10.58;;;;;;;-1.17;68.55;102992.49;1860723;77;20994;-78
2021/11/11 05:18:50;;;;;;;27.30;15.63;;;;;;;-1.15;68.44;102992.98;1860688;77;20863;-80
2021/11/11 05:21:17;;;;;;;27.25;16.07;;;;;;;-1.13;68.36;102987.46;1861331;77;20836;-78
2021/11/11 05:23:45;;;;;;;21.33;12.35;;;;;;;-1.10;68.35;102990.53;1861608;77;20880;-79
2021/11/11 05:26:12;;;;;;;21.23;12.90;;;;;;;-1.07;68.28;102995.36;1827798;77;20939;-77
2021/11/11 05:28:39;;;;;;;21.87;11.28;;;;;;;-1.05;68.20;102992.37;1860787;77;20818;-77
2021/11/11 05:31:08;;;;;;;26.82;14.73;;;;;;;-1.02;68.17;102987.75;1860163;77;21108;-78
2021/11/11 05:33:37;;;;;;;26.85;14.83;;;;;;;-0.99;68.16;102992.97;1860753;77;21057;-80
2021/11/11 05:36:04;;;;;;;24.45;13.88;;;;;;;-0.97;68.01;102995.59;1860891;77;20954;-79
2021/11/11 05:38:31;;;;;;;26.10;13.80;;;;;;;-0.94;67.96;102982.78;1860624;77;20955;-78
2021/11/11 05:40:59;;;;;;;29.52;15.78;;;;;;;-0.91;68.03;102979.89;1860794;77;20899;-80
2021/11/11 05:43:26;;;;;;;28.05;14.38;;;;;;;-0.88;67.86;102986.39;1860997;77;21111;-79
2021/11/11 05:45:53;;;;;;;22.90;13.15;;;;;;;-0.82;67.64;102988.66;1860665;77;20919;-80
2021/11/11 05:48:20;;;;;;;25.50;13.90;;;;;;;-0.73;67.47;102981.19;1861217;77;21100;-78
2021/11/11 05:50:47;;;;;;;23.98;14.98;;;;;;;-0.52;67.57;102976.97;1859192;76;20891;-78
2021/11/11 05:53:15;;;;;;;24.23;13.28;;;;;;;-0.25;66.99;102989.20;1859390;76;20880;-78
2021/11/11 05:55:43;;;;;;;26.80;14.63;;;;;;;0.12;66.64;102982.72;1858836;77;21822;-78
2021/11/11 05:58:13;;;;;;;29.25;16.02;;;;;;;0.35;65.43;102972.44;1858574;76;20947;-77
2021/11/11 06:00:39;;;;;;;28.12;15.68;;;;;;;0.45;64.85;102970.94;1858640;76;20859;-78
2021/11/11 06:03:17;;;;;;;31.85;16.70;;;;;;;0.49;64.30;102967.97;1858343;76;20910;-77
2021/11/11 06:05:46;;;;;;;26.70;16.75;;;;;;;0.45;64.13;102961.91;1858619;77;21333;-77
2021/11/11 06:08:14;;;;;;;34.08;18.85;;;;;;;0.45;64.07;102967.06;1857872;77;21088;-76
2021/11/11 06:10:41;;;;;;;44.60;22.50;;;;;;;0.41;64.17;102966.12;1858506;77;20907;-78
2021/11/11 06:13:09;;;;;;;39.92;21.15;;;;;;;0.42;64.25;102969.56;1858586;76;20836;-76
2021/11/11 06:15:37;;;;;;;33.45;18.87;;;;;;;0.40;64.39;102973.43;1858553;77;20840;-77
2021/11/11 06:18:06;;;;;;;31.33;19.23;;;;;;;0.41;64.31;102966.12;1858882;76;20872;-77
2021/11/11 06:20:39;;;;;;;37.28;18.75;;;;;;;0.42;64.45;102963.11;1858725;76;21128;-77
2021/11/11 06:23:03;;;;;;;40.60;20.17;;;;;;;0.44;64.49;102964.44;1857983;77;20959;-78
2021/11/11 06:25:31;;;;;;;39.30;21.07;;;;;;;0.47;64.59;102957.64;1858607;77;20939;-77
2021/11/11 06:27:59;;;;;;;32.15;20.15;;;;;;;0.52;64.78;102963.76;1858076;77;20907;-78
2021/11/11 06:30:28;;;;;;;29.02;17.62;;;;;;;0.57;64.97;102958.68;1858531;77;20914;-77
2021/11/11 06:32:55;;;;;;;35.90;17.85;;;;;;;0.58;65.01;102961.73;1858593;77;21138;-79
2021/11/11 06:35:22;;;;;;;31.12;18.27;;;;;;;0.58;65.13;102960.44;1858488;77;20919;-76
2021/11/11 06:37:50;;;;;;;27.00;17.90;;;;;;;0.59;65.28;102954.42;1858614;77;20848;-80
2021/11/11 06:40:17;;;;;;;37.42;21.48;;;;;;;0.60;65.44;102954.45;1858625;77;21337;-78
2021/11/11 06:42:45;;;;;;;46.35;23.67;;;;;;;0.63;65.82;102956.22;1858590;76;20872;-79
2021/11/11 06:45:14;;;;;;;47.43;25.05;;;;;;;0.65;66.14;102955.83;1858608;77;21108;-78
2021/11/11 06:47:43;;;;;;;41.33;22.48;;;;;;;0.68;66.35;102958.89;1858521;77;21001;-77
2021/11/11 06:50:11;;;;;;;37.67;22.62;;;;;;;0.72;66.46;102955.09;1823547;78;20880;-77
2021/11/11 06:52:39;;;;;;;40.92;20.37;;;;;;;0.78;66.53;102947.47;1830387;78;20844;-79
2021/11/11 06:55:07;;;;;;;37.03;21.42;;;;;;;0.86;66.45;102954.48;1830400;78;21345;-77
2021/11/11 06:57:36;;;;;;;31.10;18.62;;;;;;;0.92;66.27;102955.89;1830109;78;20875;-79
2021/11/11 07:00:09;;;;;;;35.00;19.80;;;;;;;0.95;66.12;102952.06;1829868;77;20860;-78
2021/11/11 07:02:35;;;;;;;30.00;18.20;;;;;;;1.02;66.04;102950.02;1830315;78;21329;-77
2021/11/11 07:05:03;;;;;;;30.77;17.12;;;;;;;1.06;65.79;102949.23;1830025;78;20951;-77
2021/11/11 07:07:30;;;;;;;27.15;15.55;;;;;;;1.10;65.49;102945.86;1830277;78;20947;-77
2021/11/11 07:09:58;;;;;;;23.98;14.95;;;;;;;1.13;65.33;102939.88;1830099;78;21902;-76
2021/11/11 07:12:25;;;;;;;25.27;13.13;;;;;;;1.14;65.08;102943.78;1830636;78;20876;-78
2021/11/11 07:14:52;;;;;;;29.98;13.53;;;;;;;1.14;64.68;102945.08;1830321;78;20904;-79
2021/11/11 07:17:20;;;;;;;20.40;11.88;;;;;;;1.19;64.84;102945.16;1830267;77;20915;-77
2021/11/11 07:19:48;;;;;;;22.30;11.43;;;;;;;1.22;64.40;102942.20;1830502;78;20951;-78
2021/11/11 07:22:15;;;;;;;19.12;11.03;;;;;;;1.26;64.25;102946.13;1830053;77;21962;-77
2021/11/11 07:24:43;;;;;;;17.50;9.50;;;;;;;1.27;64.14;102940.09;1830057;78;20916;-78
2021/11/11 07:27:10;;;;;;;15.43;9.43;;;;;;;1.30;64.36;102943.61;1830036;78;21041;-77
2021/11/11 07:29:37;;;;;;;13.15;8.93;;;;;;;1.33;64.27;102938.48;1830050;78;20911;-78
2021/11/11 07:32:05;;;;;;;13.45;8.85;;;;;;;1.37;63.98;102950.61;1830372;77;20912;-78
2021/11/11 07:34:33;;;;;;;15.60;9.10;;;;;;;1.39;63.90;102929.96;1830051;78;22050;-77
2021/11/11 07:37:01;;;;;;;14.87;7.70;;;;;;;1.41;63.96;102925.69;1793460;80;21024;-77
2021/11/11 07:39:28;;;;;;;17.10;7.92;;;;;;;1.45;63.67;102937.81;1793531;78;20863;-78
2021/11/11 07:41:55;;;;;;;20.40;9.30;;;;;;;1.45;63.57;102926.19;1793580;80;20892;-78
2021/11/11 07:44:22;;;;;;;11.78;7.53;;;;;;;1.48;63.66;102930.09;1793423;80;20915;-80
2021/11/11 07:46:50;;;;;;;17.07;9.85;;;;;;;1.51;63.65;102922.80;1793567;80;21137;-78
2021/11/11 07:49:18;;;;;;;16.90;8.03;;;;;;;1.54;63.74;102928.91;1793240;80;20973;-78
2021/11/11 07:51:45;;;;;;;17.07;9.58;;;;;;;1.57;63.80;102934.11;1819970;78;20876;-78
2021/11/11 07:54:12;;;;;;;12.70;7.85;;;;;;;1.63;63.68;102932.05;1797678;79;21013;-76
2021/11/11 07:56:43;;;;;;;14.73;9.20;;;;;;;1.67;63.78;102923.49;1797102;79;20967;-79
2021/11/11 07:59:14;;;;;;;13.25;8.95;;;;;;;1.73;63.73;102930.45;1797625;79;20935;-78
2021/11/11 08:01:41;;;;;;;11.10;8.25;;;;;;;1.77;63.63;102925.34;1797588;79;21554;-78
2021/11/11 08:04:08;;;;;;;16.27;9.00;;;;;;;1.82;63.44;102922.41;1826244;78;20926;-79
2021/11/11 08:06:35;;;;;;;17.85;10.38;;;;;;;1.86;63.38;102929.34;1826549;78;20919;-76
2021/11/11 08:09:03;;;;;;;18.35;9.13;;;;;;;1.90;63.54;102921.64;1826686;78;20990;-78
2021/11/11 08:11:35;;;;;;;21.62;9.55;;;;;;;1.93;63.22;102916.06;1826905;78;21463;-77
2021/11/11 08:14:05;;;;;;;12.20;9.20;;;;;;;1.96;63.21;102915.26;1827068;78;20950;-77
2021/11/11 08:16:30;;;;;;;15.35;9.98;;;;;;;1.97;63.50;102907.49;1826550;78;20899;-76
2021/11/11 08:18:59;;;;;;;13.05;8.98;;;;;;;2.03;63.63;102911.46;1826747;78;20848;-78
2021/11/11 08:21:26;;;;;;;18.65;9.38;;;;;;;2.05;63.63;102903.30;1826742;78;20864;-79
2021/11/11 08:23:53;;;;;;;18.17;9.43;;;;;;;2.09;63.77;102899.03;1826758;78;21281;-78
2021/11/11 08:26:20;;;;;;;12.03;8.45;;;;;;;2.12;63.75;102898.20;1826686;78;20876;-78
2021/11/11 08:28:46;;;;;;;14.25;8.38;;;;;;;2.17;63.56;102899.11;1827241;78;20977;-79
2021/11/11 08:31:13;;;;;;;15.78;8.60;;;;;;;2.19;63.35;102885.33;1826677;78;20935;-78
2021/11/11 08:33:40;;;;;;;14.98;7.75;;;;;;;2.24;62.94;102891.42;1826819;78;20985;-78
2021/11/11 08:36:07;;;;;;;12.58;7.95;;;;;;;2.28;62.86;102884.57;1826697;78;21915;-78
2021/11/11 08:38:34;;;;;;;12.00;7.45;;;;;;;2.32;62.83;102880.30;1827357;78;20923;-78
2021/11/11 08:41:01;;;;;;;9.45;7.35;;;;;;;2.37;62.72;102877.33;1826640;78;20965;-80
2021/11/11 08:43:28;;;;;;;10.63;7.33;;;;;;;2.44;62.59;102875.23;1827063;78;20859;-77
2021/11/11 08:45:56;;;;;;;14.43;8.13;;;;;;;2.46;62.41;102876.98;1826785;78;21344;-80
2021/11/11 08:48:23;;;;;;;11.40;7.85;;;;;;;2.52;62.43;102875.34;1827013;78;21155;-77
2021/11/11 08:50:50;;;;;;;14.33;9.20;;;;;;;2.58;62.49;102877.96;1823844;78;20903;-77
2021/11/11 08:53:17;;;;;;;16.97;8.55;;;;;;;2.64;62.47;102874.14;1817131;79;20931;-78
2021/11/11 08:55:45;;;;;;;14.18;8.58;;;;;;;2.70;62.45;102868.59;1817359;78;21456;-80
2021/11/11 08:58:12;;;;;;;14.95;7.20;;;;;;;2.75;62.09;102861.29;1817528;79;20970;-76
2021/11/11 09:00:44;;;;;;;12.55;6.58;;;;;;;2.76;61.74;102858.72;1817518;78;21146;-77
2021/11/11 09:03:12;;;;;;;12.63;7.28;;;;;;;2.80;61.62;102850.53;1817811;79;20962;-80
2021/11/11 09:05:39;;;;;;;9.43;6.85;;;;;;;2.84;61.29;102852.30;1817732;78;20849;-79
2021/11/11 09:08:07;;;;;;;14.65;8.10;;;;;;;2.86;60.95;102855.34;1817585;78;21089;-77
2021/11/11 09:10:40;;;;;;;9.25;6.40;;;;;;;2.90;60.99;102853.64;1817549;79;20895;-77
2021/11/11 09:13:07;;;;;;;10.93;6.40;;;;;;;2.93;61.09;102848.91;1817427;78;21145;-76
2021/11/11 09:15:35;;;;;;;12.47;6.40;;;;;;;2.97;60.94;102850.67;1816587;79;20916;-77
2021/11/11 09:18:04;;;;;;;11.83;6.15;;;;;;;3.01;60.73;102852.44;1817603;79;20959;-78
2021/11/11 09:20:31;;;;;;;9.15;6.40;;;;;;;3.07;60.61;102851.20;1817284;79;20959;-77
2021/11/11 09:23:01;;;;;;;13.03;7.35;;;;;;;3.11;60.12;102845.16;1817282;79;20927;-76
2021/11/11 09:25:30;;;;;;;11.33;6.35;;;;;;;3.17;60.45;102841.31;1817192;79;21836;-77
2021/11/11 09:27:59;;;;;;;10.00;6.87;;;;;;;3.24;60.25;102818.45;1817448;79;20845;-74
2021/11/11 09:30:33;;;;;;;12.85;7.28;;;;;;;3.28;59.71;102813.72;1817249;78;21464;-80
2021/11/11 09:33:00;;;;;;;11.93;7.33;;;;;;;3.30;59.69;102807.26;1817383;79;20955;-75
2021/11/11 09:35:27;;;;;;;9.33;6.15;;;;;;;3.32;59.55;102797.33;1817012;79;20978;-74
2021/11/11 09:37:54;;;;;;;12.07;7.53;;;;;;;3.41;59.36;102802.13;1817742;79;21154;-74
2021/11/11 09:40:23;;;;;;;12.50;7.00;;;;;;;3.58;59.49;102803.48;1817403;78;21049;-73
2021/11/11 09:42:50;;;;;;;8.68;6.33;;;;;;;3.95;58.82;102797.56;1818041;78;20963;-74
2021/11/11 09:45:19;;;;;;;12.85;8.10;;;;;;;4.56;57.42;102794.21;1817190;78;20931;-74
2021/11/11 09:47:49;;;;;;;8.63;5.08;;;;;;;5.32;56.16;102792.36;1818045;79;20877;-73
2021/11/11 09:50:16;;;;;;;8.78;4.75;;;;;;;6.13;53.18;102796.34;1817582;79;21540;-74
2021/11/11 09:52:44;;;;;;;7.10;5.22;;;;;;;6.86;51.06;102787.52;1819810;78;21457;-73
2021/11/11 10:00:45;;;;;;;7.58;5.33;;;;;;;8.81;46.36;102775.76;1821167;78;20919;-74
2021/11/11 10:03:12;;;;;;;8.43;5.60;;;;;;;9.37;44.18;102783.42;1820823;78;21465;-72
2021/11/11 10:05:40;;;;;;;9.30;5.30;;;;;;;9.73;43.48;102780.92;1820350;78;21349;-74
2021/11/11 10:08:10;;;;;;;8.13;5.45;;;;;;;10.03;43.48;102785.95;1820666;78;20852;-72
2021/11/11 10:10:41;;;;;;;9.73;5.20;;;;;;;10.26;42.28;102772.28;1768797;78;21406;-76
2021/11/11 10:13:17;;;;;;;7.67;4.45;;;;;;;10.43;41.82;102769.75;1820832;78;20849;-73
2021/11/11 10:16:10;;;;;;;5.65;4.25;;;;;;;10.57;42.09;102771.11;1820026;78;21158;-74
2021/11/11 10:18:55;;;;;;;7.65;4.92;;;;;;;10.68;40.82;102772.61;1820414;78;20856;-74
2021/11/11 10:21:52;;;;;;;7.80;5.28;;;;;;;10.61;41.35;102767.11;1820645;78;20955;-76
2021/11/11 10:24:30;;;;;;;5.20;3.92;;;;;;;10.61;40.58;102760.55;1820206;78;20935;-72
2021/11/11 10:27:08;;;;;;;5.80;4.10;;;;;;;10.62;40.94;102755.70;1820494;78;21018;-73
2021/11/11 10:29:53;;;;;;;5.67;3.47;;;;;;;10.68;39.65;102746.37;1820562;78;21299;-72
2021/11/11 10:32:48;;;;;;;4.62;3.72;;;;;;;10.74;39.70;102749.69;1820450;78;20949;-74
2021/11/11 10:35:21;;;;;;;5.17;3.60;;;;;;;10.77;39.03;102739.56;1820565;78;20962;-73
2021/11/11 10:38:04;;;;;;;4.92;4.25;;;;;;;10.76;38.28;102745.69;1820908;78;20891;-74
2021/11/11 10:40:42;;;;;;;4.80;3.72;;;;;;;10.77;38.41;102731.23;1820979;78;20974;-74
2021/11/11 10:43:11;;;;;;;7.53;3.70;;;;;;;10.94;38.62;102732.09;1821029;78;21108;-75
2021/11/11 10:45:45;;;;;;;5.67;3.98;;;;;;;11.10;37.87;102722.02;1820133;78;20998;-75
2021/11/11 10:48:15;;;;;;;6.20;3.55;;;;;;;11.27;37.75;102712.78;1821223;78;21431;-75
2021/11/11 10:50:48;;;;;;;4.05;3.45;;;;;;;11.24;36.18;102707.17;1820771;78;21435;-76
2021/11/11 10:53:21;;;;;;;5.42;3.42;;;;;;;10.93;36.62;102698.00;1815946;79;21369;-74
2021/11/11 10:55:51;;;;;;;7.37;4.73;;;;;;;10.58;37.38;102685.38;1816155;79;22168;-75
2021/11/11 10:58:24;;;;;;;7.55;3.58;;;;;;;10.27;37.33;102678.31;1815848;79;20876;-75
2021/11/11 11:01:04;;;;;;;7.78;4.80;;;;;;;9.86;37.91;102675.39;1815889;78;21398;-75
2021/11/11 11:03:42;;;;;;;6.75;5.20;;;;;;;9.42;38.01;102690.36;1812098;78;20932;-74
2021/11/11 11:06:15;;;;;;;7.87;4.85;;;;;;;8.99;39.48;102687.34;1816028;79;21368;-74
2021/11/11 11:08:46;;;;;;;6.78;4.47;;;;;;;8.71;40.13;102678.70;1814847;78;21787;-76
2021/11/11 11:11:19;;;;;;;8.10;4.97;;;;;;;8.50;40.87;102671.68;1815836;79;20848;-75
2021/11/11 11:13:55;;;;;;;8.30;4.95;;;;;;;8.28;41.18;102666.39;1815890;79;20892;-76
2021/11/11 11:16:25;;;;;;;6.05;4.95;;;;;;;8.01;41.27;102667.27;1816081;78;20955;-72
2021/11/11 11:19:11;;;;;;;6.37;4.00;;;;;;;7.79;41.79;102648.91;1816006;79;20916;-76
2021/11/11 11:21:44;;;;;;;8.93;3.77;;;;;;;7.63;41.85;102654.82;1815325;79;21558;-74
2021/11/11 11:24:17;;;;;;;11.22;4.78;;;;;;;7.47;42.77;102643.74;1815832;78;20927;-74
2021/11/11 11:26:50;;;;;;;5.80;3.70;;;;;;;7.34;43.15;102635.22;1816144;78;20928;-76
2021/11/11 11:29:26;;;;;;;8.58;4.83;;;;;;;7.17;43.48;102634.13;1815902;78;21326;-75
2021/11/11 11:32:06;;;;;;;9.23;6.43;;;;;;;7.06;44.05;102624.27;1816313;79;20829;-78
2021/11/11 11:34:47;;;;;;;8.30;5.28;;;;;;;7.00;44.08;102617.83;1815562;79;21154;-75
2021/11/11 11:37:17;;;;;;;10.63;5.35;;;;;;;6.99;43.62;102616.97;1812990;79;20924;-75
2021/11/11 11:39:52;;;;;;;12.53;4.90;;;;;;;7.01;43.92;102616.52;1815128;79;20920;-73
2021/11/11 11:42:28;;;;;;;10.70;4.15;;;;;;;7.00;43.61;102620.44;1815657;78;20951;-73
2021/11/11 11:44:59;;;;;;;8.48;3.30;;;;;;;6.96;43.75;102617.02;1814962;79;20832;-74
2021/11/11 11:50:15;;;;;;;6.65;3.87;;;;;;;6.99;43.96;102619.58;1815786;79;21003;-78
2021/11/11 11:52:47;;;;;;;9.10;3.87;;;;;;;6.99;43.88;102615.67;1817243;79;20979;-76
2021/11/11 11:56:07;;;;;;;14.95;4.10;;;;;;;7.02;44.22;102614.76;1816351;79;22570;-73